sensor_id;sensor_type;location;lat;lon;timestamp;P1;durP1;ratioP1;P2;durP2;ratioP2
7939;SDS011;4015;48.888;9.226;2023-06-10T00:01:00;5.25;;;4.85;;
7939;SDS011;4015;48.888;9.226;2023-06-10T00:03:26;6.10;;;5.00;;
7939;SDS011;4015;48.888;9.226;2023-06-10T00:05:51;4.68;;;4.10;;
7939;SDS011;4015;48.888;9.226;2023-06-10T00:08:16;4.95;;;4.50;;
7939;SDS011;4015;48.888;9.226;2023-06-10T00:10:44;6.45;;;5.05;;
7939;SDS011;4015;48.888;9.226;2023-06-10T00:13:10;5.53;;;4.50;;
7939;SDS011;4015;48.888;9.226;2023-06-10T00:15:36;4.80;;;4.35;;
7939;SDS011;4015;48.888;9.226;2023-06-10T00:18:02;4.50;;;4.10;;
7939;SDS011;4015;48.888;9.226;2023-06-10T00:20:28;5.25;;;4.75;;
7939;SDS011;4015;48.888;9.226;2023-06-10T00:22:55;5.03;;;4.55;;
7939;SDS011;4015;48.888;9.226;2023-06-10T00:25:22;5.40;;;4.90;;
7939;SDS011;4015;48.888;9.226;2023-06-10T00:27:47;5.47;;;4.97;;
7939;SDS011;4015;48.888;9.226;2023-06-10T00:30:12;5.05;;;4.55;;
7939;SDS011;4015;48.888;9.226;2023-06-10T00:32:38;5.55;;;5.05;;
7939;SDS011;4015;48.888;9.226;2023-06-10T00:35:03;5.13;;;4.63;;
7939;SDS011;4015;48.888;9.226;2023-06-10T00:37:29;6.00;;;4.13;;
7939;SDS011;4015;48.888;9.226;2023-06-10T00:39:55;4.70;;;4.30;;
7939;SDS011;4015;48.888;9.226;2023-06-10T00:42:21;4.47;;;4.07;;
7939;SDS011;4015;48.888;9.226;2023-06-10T00:44:49;4.55;;;4.15;;
7939;SDS011;4015;48.888;9.226;2023-06-10T00:47:15;4.85;;;4.45;;
7939;SDS011;4015;48.888;9.226;2023-06-10T00:49:40;5.30;;;4.80;;
7939;SDS011;4015;48.888;9.226;2023-06-10T00:52:06;5.88;;;4.82;;
7939;SDS011;4015;48.888;9.226;2023-06-10T00:54:32;4.82;;;4.30;;
7939;SDS011;4015;48.888;9.226;2023-06-10T00:56:59;5.10;;;4.70;;
7939;SDS011;4015;48.888;9.226;2023-06-10T00:59:28;4.85;;;4.45;;
7939;SDS011;4015;48.888;9.226;2023-06-10T01:01:53;6.03;;;4.43;;
7939;SDS011;4015;48.888;9.226;2023-06-10T01:04:20;4.82;;;3.95;;
7939;SDS011;4015;48.888;9.226;2023-06-10T01:12:29;5.22;;;4.72;;
7939;SDS011;4015;48.888;9.226;2023-06-10T01:14:59;4.60;;;4.20;;
7939;SDS011;4015;48.888;9.226;2023-06-10T01:17:25;4.78;;;4.38;;
7939;SDS011;4015;48.888;9.226;2023-06-10T01:19:55;5.05;;;4.20;;
7939;SDS011;4015;48.888;9.226;2023-06-10T01:22:24;5.03;;;4.63;;
7939;SDS011;4015;48.888;9.226;2023-06-10T01:24:53;5.32;;;4.78;;
7939;SDS011;4015;48.888;9.226;2023-06-10T01:27:19;4.43;;;4.03;;
7939;SDS011;4015;48.888;9.226;2023-06-10T01:29:50;4.75;;;4.35;;
7939;SDS011;4015;48.888;9.226;2023-06-10T01:32:26;5.05;;;4.55;;
7939;SDS011;4015;48.888;9.226;2023-06-10T01:34:57;4.40;;;4.00;;
7939;SDS011;4015;48.888;9.226;2023-06-10T01:37:25;5.85;;;4.75;;
7939;SDS011;4015;48.888;9.226;2023-06-10T01:39:51;4.15;;;3.75;;
7939;SDS011;4015;48.888;9.226;2023-06-10T01:42:19;4.60;;;4.20;;
7939;SDS011;4015;48.888;9.226;2023-06-10T01:44:45;8.80;;;4.40;;
7939;SDS011;4015;48.888;9.226;2023-06-10T01:47:11;5.05;;;4.55;;
7939;SDS011;4015;48.888;9.226;2023-06-10T01:49:36;4.82;;;4.40;;
7939;SDS011;4015;48.888;9.226;2023-06-10T01:52:02;4.90;;;3.78;;
7939;SDS011;4015;48.888;9.226;2023-06-10T01:54:27;4.78;;;4.28;;
7939;SDS011;4015;48.888;9.226;2023-06-10T01:56:52;4.75;;;4.32;;
7939;SDS011;4015;48.888;9.226;2023-06-10T01:59:18;4.55;;;4.15;;
7939;SDS011;4015;48.888;9.226;2023-06-10T02:01:43;5.70;;;4.82;;
7939;SDS011;4015;48.888;9.226;2023-06-10T02:04:08;4.43;;;4.03;;
7939;SDS011;4015;48.888;9.226;2023-06-10T02:06:34;5.32;;;4.82;;
7939;SDS011;4015;48.888;9.226;2023-06-10T02:09:00;4.85;;;4.18;;
7939;SDS011;4015;48.888;9.226;2023-06-10T02:11:25;4.55;;;3.97;;
7939;SDS011;4015;48.888;9.226;2023-06-10T02:13:51;5.00;;;4.60;;
7939;SDS011;4015;48.888;9.226;2023-06-10T02:16:17;5.20;;;4.80;;
7939;SDS011;4015;48.888;9.226;2023-06-10T02:18:42;5.00;;;4.57;;
7939;SDS011;4015;48.888;9.226;2023-06-10T02:21:08;4.32;;;3.92;;
7939;SDS011;4015;48.888;9.226;2023-06-10T02:23:33;4.28;;;3.88;;
7939;SDS011;4015;48.888;9.226;2023-06-10T02:26:00;6.07;;;4.35;;
7939;SDS011;4015;48.888;9.226;2023-06-10T02:28:25;4.45;;;4.05;;
7939;SDS011;4015;48.888;9.226;2023-06-10T02:30:51;4.50;;;4.10;;
7939;SDS011;4015;48.888;9.226;2023-06-10T02:33:16;4.60;;;3.75;;
7939;SDS011;4015;48.888;9.226;2023-06-10T02:35:42;5.25;;;4.05;;
7939;SDS011;4015;48.888;9.226;2023-06-10T02:38:08;3.92;;;3.53;;
7939;SDS011;4015;48.888;9.226;2023-06-10T02:40:33;4.57;;;4.00;;
7939;SDS011;4015;48.888;9.226;2023-06-10T02:42:59;3.58;;;3.28;;
7939;SDS011;4015;48.888;9.226;2023-06-10T02:45:24;4.68;;;3.83;;
7939;SDS011;4015;48.888;9.226;2023-06-10T02:47:49;4.15;;;3.75;;
7939;SDS011;4015;48.888;9.226;2023-06-10T02:50:15;4.25;;;3.85;;
7939;SDS011;4015;48.888;9.226;2023-06-10T02:52:41;4.15;;;3.75;;
7939;SDS011;4015;48.888;9.226;2023-06-10T02:55:07;4.10;;;3.80;;
7939;SDS011;4015;48.888;9.226;2023-06-10T02:57:32;5.15;;;3.80;;
7939;SDS011;4015;48.888;9.226;2023-06-10T02:59:57;4.30;;;3.90;;
7939;SDS011;4015;48.888;9.226;2023-06-10T03:02:27;4.38;;;3.97;;
7939;SDS011;4015;48.888;9.226;2023-06-10T03:04:56;4.72;;;3.88;;
7939;SDS011;4015;48.888;9.226;2023-06-10T03:07:21;4.10;;;3.80;;
7939;SDS011;4015;48.888;9.226;2023-06-10T03:09:46;4.18;;;3.88;;
7939;SDS011;4015;48.888;9.226;2023-06-10T03:12:12;3.92;;;3.63;;
7939;SDS011;4015;48.888;9.226;2023-06-10T03:14:37;4.32;;;3.97;;
7939;SDS011;4015;48.888;9.226;2023-06-10T03:17:03;4.70;;;4.30;;
7939;SDS011;4015;48.888;9.226;2023-06-10T03:19:29;4.53;;;4.13;;
7939;SDS011;4015;48.888;9.226;2023-06-10T03:22:11;5.28;;;4.78;;
7939;SDS011;4015;48.888;9.226;2023-06-10T03:24:38;4.60;;;4.20;;
7939;SDS011;4015;48.888;9.226;2023-06-10T03:27:08;4.60;;;4.20;;
7939;SDS011;4015;48.888;9.226;2023-06-10T03:29:34;6.28;;;4.50;;
7939;SDS011;4015;48.888;9.226;2023-06-10T03:32:00;5.43;;;4.85;;
7939;SDS011;4015;48.888;9.226;2023-06-10T03:34:26;5.15;;;4.68;;
7939;SDS011;4015;48.888;9.226;2023-06-10T03:36:51;4.38;;;3.97;;
7939;SDS011;4015;48.888;9.226;2023-06-10T03:39:16;4.93;;;4.53;;
7939;SDS011;4015;48.888;9.226;2023-06-10T03:41:41;4.93;;;4.35;;
7939;SDS011;4015;48.888;9.226;2023-06-10T03:44:07;4.72;;;4.32;;
7939;SDS011;4015;48.888;9.226;2023-06-10T03:46:32;5.05;;;3.97;;
7939;SDS011;4015;48.888;9.226;2023-06-10T03:48:57;4.60;;;4.20;;
7939;SDS011;4015;48.888;9.226;2023-06-10T03:51:25;4.60;;;4.20;;
7939;SDS011;4015;48.888;9.226;2023-06-10T03:53:51;6.25;;;5.65;;
7939;SDS011;4015;48.888;9.226;2023-06-10T03:56:16;4.82;;;4.43;;
7939;SDS011;4015;48.888;9.226;2023-06-10T03:58:41;4.72;;;4.25;;
7939;SDS011;4015;48.888;9.226;2023-06-10T04:01:07;4.45;;;4.05;;
7939;SDS011;4015;48.888;9.226;2023-06-10T04:03:32;4.53;;;4.13;;
7939;SDS011;4015;48.888;9.226;2023-06-10T04:05:58;5.03;;;4.53;;
7939;SDS011;4015;48.888;9.226;2023-06-10T04:08:23;5.18;;;4.60;;
7939;SDS011;4015;48.888;9.226;2023-06-10T04:10:48;5.00;;;4.47;;
7939;SDS011;4015;48.888;9.226;2023-06-10T04:13:14;5.43;;;4.90;;
7939;SDS011;4015;48.888;9.226;2023-06-10T04:15:40;5.47;;;4.65;;
7939;SDS011;4015;48.888;9.226;2023-06-10T04:18:05;4.85;;;4.35;;
7939;SDS011;4015;48.888;9.226;2023-06-10T04:20:31;5.30;;;4.65;;
7939;SDS011;4015;48.888;9.226;2023-06-10T04:22:57;6.10;;;4.25;;
7939;SDS011;4015;48.888;9.226;2023-06-10T04:25:22;4.75;;;4.35;;
7939;SDS011;4015;48.888;9.226;2023-06-10T04:27:49;4.68;;;4.25;;
7939;SDS011;4015;48.888;9.226;2023-06-10T04:30:14;8.82;;;4.93;;
7939;SDS011;4015;48.888;9.226;2023-06-10T04:32:40;4.65;;;4.22;;
7939;SDS011;4015;48.888;9.226;2023-06-10T04:35:05;4.97;;;4.57;;
7939;SDS011;4015;48.888;9.226;2023-06-10T04:37:31;4.32;;;3.97;;
7939;SDS011;4015;48.888;9.226;2023-06-10T04:39:57;4.82;;;4.15;;
7939;SDS011;4015;48.888;9.226;2023-06-10T04:42:22;4.60;;;4.20;;
7939;SDS011;4015;48.888;9.226;2023-06-10T04:44:47;4.82;;;4.32;;
7939;SDS011;4015;48.888;9.226;2023-06-10T04:47:13;4.95;;;4.55;;
7939;SDS011;4015;48.888;9.226;2023-06-10T04:49:38;6.18;;;4.68;;
7939;SDS011;4015;48.888;9.226;2023-06-10T04:52:03;6.45;;;5.10;;
7939;SDS011;4015;48.888;9.226;2023-06-10T04:54:30;5.25;;;4.45;;
7939;SDS011;4015;48.888;9.226;2023-06-10T04:56:55;6.60;;;5.03;;
7939;SDS011;4015;48.888;9.226;2023-06-10T04:59:20;6.35;;;5.85;;
7939;SDS011;4015;48.888;9.226;2023-06-10T05:01:46;4.75;;;4.35;;
7939;SDS011;4015;48.888;9.226;2023-06-10T05:04:11;5.20;;;4.57;;
7939;SDS011;4015;48.888;9.226;2023-06-10T05:06:36;4.85;;;4.13;;
7939;SDS011;4015;48.888;9.226;2023-06-10T05:09:02;5.22;;;4.80;;
7939;SDS011;4015;48.888;9.226;2023-06-10T05:11:27;4.57;;;4.18;;
7939;SDS011;4015;48.888;9.226;2023-06-10T05:13:52;4.50;;;4.00;;
7939;SDS011;4015;48.888;9.226;2023-06-10T05:16:18;4.70;;;4.15;;
7939;SDS011;4015;48.888;9.226;2023-06-10T05:18:43;4.30;;;3.90;;
7939;SDS011;4015;48.888;9.226;2023-06-10T05:21:08;4.72;;;4.32;;
7939;SDS011;4015;48.888;9.226;2023-06-10T05:23:34;5.45;;;4.38;;
7939;SDS011;4015;48.888;9.226;2023-06-10T05:25:59;5.45;;;3.72;;
7939;SDS011;4015;48.888;9.226;2023-06-10T05:28:25;4.85;;;4.43;;
7939;SDS011;4015;48.888;9.226;2023-06-10T05:30:50;4.30;;;3.90;;
7939;SDS011;4015;48.888;9.226;2023-06-10T05:33:16;4.43;;;4.03;;
7939;SDS011;4015;48.888;9.226;2023-06-10T05:35:41;3.83;;;3.53;;
7939;SDS011;4015;48.888;9.226;2023-06-10T05:38:07;4.47;;;4.07;;
7939;SDS011;4015;48.888;9.226;2023-06-10T05:40:32;4.10;;;3.72;;
7939;SDS011;4015;48.888;9.226;2023-06-10T05:42:57;4.07;;;3.70;;
7939;SDS011;4015;48.888;9.226;2023-06-10T05:45:23;7.97;;;4.38;;
7939;SDS011;4015;48.888;9.226;2023-06-10T05:47:48;4.20;;;3.80;;
7939;SDS011;4015;48.888;9.226;2023-06-10T05:50:13;4.03;;;3.72;;
7939;SDS011;4015;48.888;9.226;2023-06-10T05:52:39;4.60;;;4.20;;
7939;SDS011;4015;48.888;9.226;2023-06-10T05:55:07;4.13;;;3.72;;
7939;SDS011;4015;48.888;9.226;2023-06-10T05:57:33;5.50;;;4.38;;
7939;SDS011;4015;48.888;9.226;2023-06-10T05:59:59;5.53;;;4.47;;
7939;SDS011;4015;48.888;9.226;2023-06-10T06:02:24;4.38;;;3.97;;
7939;SDS011;4015;48.888;9.226;2023-06-10T06:04:49;4.63;;;4.22;;
7939;SDS011;4015;48.888;9.226;2023-06-10T06:07:15;5.07;;;4.30;;
7939;SDS011;4015;48.888;9.226;2023-06-10T06:09:40;4.30;;;3.90;;
7939;SDS011;4015;48.888;9.226;2023-06-10T06:12:06;4.55;;;4.13;;
7939;SDS011;4015;48.888;9.226;2023-06-10T06:14:32;5.72;;;4.35;;
7939;SDS011;4015;48.888;9.226;2023-06-10T06:16:57;4.15;;;3.50;;
7939;SDS011;4015;48.888;9.226;2023-06-10T06:19:23;4.47;;;3.97;;
7939;SDS011;4015;48.888;9.226;2023-06-10T06:21:48;4.65;;;4.25;;
7939;SDS011;4015;48.888;9.226;2023-06-10T06:24:14;4.57;;;4.18;;
7939;SDS011;4015;48.888;9.226;2023-06-10T06:26:40;6.53;;;4.13;;
7939;SDS011;4015;48.888;9.226;2023-06-10T06:29:06;4.55;;;4.13;;
7939;SDS011;4015;48.888;9.226;2023-06-10T06:31:31;4.32;;;3.92;;
7939;SDS011;4015;48.888;9.226;2023-06-10T06:33:56;4.88;;;4.40;;
7939;SDS011;4015;48.888;9.226;2023-06-10T06:36:22;4.05;;;3.65;;
7939;SDS011;4015;48.888;9.226;2023-06-10T06:38:47;5.25;;;4.60;;
7939;SDS011;4015;48.888;9.226;2023-06-10T06:41:12;4.60;;;4.07;;
7939;SDS011;4015;48.888;9.226;2023-06-10T06:43:38;5.07;;;4.05;;
7939;SDS011;4015;48.888;9.226;2023-06-10T06:46:03;5.35;;;4.20;;
7939;SDS011;4015;48.888;9.226;2023-06-10T06:48:28;5.55;;;5.05;;
7939;SDS011;4015;48.888;9.226;2023-06-10T06:50:54;6.07;;;4.22;;
7939;SDS011;4015;48.888;9.226;2023-06-10T06:53:21;5.78;;;4.40;;
7939;SDS011;4015;48.888;9.226;2023-06-10T06:55:46;4.32;;;3.95;;
7939;SDS011;4015;48.888;9.226;2023-06-10T06:58:12;5.53;;;5.03;;
7939;SDS011;4015;48.888;9.226;2023-06-10T07:00:37;4.45;;;4.05;;
7939;SDS011;4015;48.888;9.226;2023-06-10T07:03:02;4.28;;;3.88;;
7939;SDS011;4015;48.888;9.226;2023-06-10T07:05:28;4.53;;;4.13;;
7939;SDS011;4015;48.888;9.226;2023-06-10T07:07:53;5.00;;;4.50;;
7939;SDS011;4015;48.888;9.226;2023-06-10T07:10:21;5.70;;;4.20;;
7939;SDS011;4015;48.888;9.226;2023-06-10T07:12:48;3.90;;;3.60;;
7939;SDS011;4015;48.888;9.226;2023-06-10T07:15:13;4.60;;;4.18;;
7939;SDS011;4015;48.888;9.226;2023-06-10T07:17:38;4.47;;;4.07;;
7939;SDS011;4015;48.888;9.226;2023-06-10T07:20:04;4.95;;;4.55;;
7939;SDS011;4015;48.888;9.226;2023-06-10T07:22:30;3.78;;;3.47;;
7939;SDS011;4015;48.888;9.226;2023-06-10T07:24:55;4.15;;;3.75;;
7939;SDS011;4015;48.888;9.226;2023-06-10T07:27:21;3.80;;;3.50;;
7939;SDS011;4015;48.888;9.226;2023-06-10T07:29:46;5.63;;;3.88;;
7939;SDS011;4015;48.888;9.226;2023-06-10T07:32:11;4.00;;;3.70;;
7939;SDS011;4015;48.888;9.226;2023-06-10T07:34:37;3.80;;;3.47;;
7939;SDS011;4015;48.888;9.226;2023-06-10T07:37:02;3.65;;;3.35;;
7939;SDS011;4015;48.888;9.226;2023-06-10T07:39:27;3.95;;;3.65;;
7939;SDS011;4015;48.888;9.226;2023-06-10T07:41:53;3.63;;;3.33;;
7939;SDS011;4015;48.888;9.226;2023-06-10T07:44:19;4.07;;;3.67;;
7939;SDS011;4015;48.888;9.226;2023-06-10T07:46:45;3.83;;;3.53;;
7939;SDS011;4015;48.888;9.226;2023-06-10T07:49:10;3.60;;;3.30;;
7939;SDS011;4015;48.888;9.226;2023-06-10T07:51:35;5.00;;;3.38;;
7939;SDS011;4015;48.888;9.226;2023-06-10T07:54:01;5.03;;;3.72;;
7939;SDS011;4015;48.888;9.226;2023-06-10T07:56:27;5.38;;;3.90;;
7939;SDS011;4015;48.888;9.226;2023-06-10T07:58:52;4.47;;;3.85;;
7939;SDS011;4015;48.888;9.226;2023-06-10T08:01:17;8.40;;;3.85;;
7939;SDS011;4015;48.888;9.226;2023-06-10T08:03:43;4.20;;;3.90;;
7939;SDS011;4015;48.888;9.226;2023-06-10T08:06:08;4.80;;;3.50;;
7939;SDS011;4015;48.888;9.226;2023-06-10T08:08:36;3.90;;;3.60;;
7939;SDS011;4015;48.888;9.226;2023-06-10T08:11:06;4.28;;;3.80;;
7939;SDS011;4015;48.888;9.226;2023-06-10T08:13:31;4.10;;;3.80;;
7939;SDS011;4015;48.888;9.226;2023-06-10T08:15:57;3.63;;;3.33;;
7939;SDS011;4015;48.888;9.226;2023-06-10T08:18:22;3.97;;;3.65;;
7939;SDS011;4015;48.888;9.226;2023-06-10T08:20:47;3.83;;;3.53;;
7939;SDS011;4015;48.888;9.226;2023-06-10T08:23:13;3.95;;;3.65;;
7939;SDS011;4015;48.888;9.226;2023-06-10T08:25:39;4.82;;;3.88;;
7939;SDS011;4015;48.888;9.226;2023-06-10T08:28:04;5.68;;;3.88;;
7939;SDS011;4015;48.888;9.226;2023-06-10T08:30:30;4.63;;;3.72;;
7939;SDS011;4015;48.888;9.226;2023-06-10T08:32:55;4.65;;;4.18;;
7939;SDS011;4015;48.888;9.226;2023-06-10T08:35:20;5.15;;;3.70;;
7939;SDS011;4015;48.888;9.226;2023-06-10T08:37:46;4.13;;;3.78;;
7939;SDS011;4015;48.888;9.226;2023-06-10T08:40:11;3.72;;;3.42;;
7939;SDS011;4015;48.888;9.226;2023-06-10T08:42:39;4.03;;;3.70;;
7939;SDS011;4015;48.888;9.226;2023-06-10T08:45:08;3.55;;;3.25;;
7939;SDS011;4015;48.888;9.226;2023-06-10T08:47:42;4.97;;;3.67;;
7939;SDS011;4015;48.888;9.226;2023-06-10T08:50:10;4.43;;;3.42;;
7939;SDS011;4015;48.888;9.226;2023-06-10T08:52:36;4.28;;;3.88;;
7939;SDS011;4015;48.888;9.226;2023-06-10T08:55:03;3.85;;;3.42;;
7939;SDS011;4015;48.888;9.226;2023-06-10T08:57:34;3.83;;;3.00;;
7939;SDS011;4015;48.888;9.226;2023-06-10T09:00:00;4.28;;;3.10;;
7939;SDS011;4015;48.888;9.226;2023-06-10T09:02:27;3.92;;;3.25;;
7939;SDS011;4015;48.888;9.226;2023-06-10T09:04:52;3.63;;;3.33;;
7939;SDS011;4015;48.888;9.226;2023-06-10T09:07:18;4.63;;;3.88;;
7939;SDS011;4015;48.888;9.226;2023-06-10T09:09:44;4.28;;;3.58;;
7939;SDS011;4015;48.888;9.226;2023-06-10T09:12:10;3.88;;;3.20;;
7939;SDS011;4015;48.888;9.226;2023-06-10T09:14:38;3.67;;;3.38;;
7939;SDS011;4015;48.888;9.226;2023-06-10T09:17:03;3.15;;;2.95;;
7939;SDS011;4015;48.888;9.226;2023-06-10T09:19:30;3.95;;;2.95;;
7939;SDS011;4015;48.888;9.226;2023-06-10T09:21:56;4.07;;;3.20;;
7939;SDS011;4015;48.888;9.226;2023-06-10T09:24:22;3.90;;;3.38;;
7939;SDS011;4015;48.888;9.226;2023-06-10T09:26:48;3.75;;;3.00;;
7939;SDS011;4015;48.888;9.226;2023-06-10T09:29:13;3.63;;;3.33;;
7939;SDS011;4015;48.888;9.226;2023-06-10T09:31:39;8.10;;;3.72;;
7939;SDS011;4015;48.888;9.226;2023-06-10T09:34:09;3.92;;;3.55;;
7939;SDS011;4015;48.888;9.226;2023-06-10T09:36:36;3.95;;;3.53;;
7939;SDS011;4015;48.888;9.226;2023-06-10T09:39:03;5.05;;;4.55;;
7939;SDS011;4015;48.888;9.226;2023-06-10T09:41:32;3.00;;;2.80;;
7939;SDS011;4015;48.888;9.226;2023-06-10T09:43:59;3.97;;;2.90;;
7939;SDS011;4015;48.888;9.226;2023-06-10T09:46:25;3.17;;;2.85;;
7939;SDS011;4015;48.888;9.226;2023-06-10T09:48:57;4.25;;;3.85;;
7939;SDS011;4015;48.888;9.226;2023-06-10T09:51:22;7.28;;;4.18;;
7939;SDS011;4015;48.888;9.226;2023-06-10T09:53:51;3.60;;;3.30;;
7939;SDS011;4015;48.888;9.226;2023-06-10T09:56:17;3.08;;;2.88;;
7939;SDS011;4015;48.888;9.226;2023-06-10T09:58:42;3.50;;;3.20;;
7939;SDS011;4015;48.888;9.226;2023-06-10T10:01:11;4.63;;;3.00;;
7939;SDS011;4015;48.888;9.226;2023-06-10T10:03:48;3.70;;;3.30;;
7939;SDS011;4015;48.888;9.226;2023-06-10T10:06:16;4.07;;;3.20;;
7939;SDS011;4015;48.888;9.226;2023-06-10T10:08:42;3.70;;;3.38;;
7939;SDS011;4015;48.888;9.226;2023-06-10T10:11:08;3.85;;;3.55;;
7939;SDS011;4015;48.888;9.226;2023-06-10T10:13:34;3.30;;;3.00;;
7939;SDS011;4015;48.888;9.226;2023-06-10T10:16:01;4.63;;;3.88;;
7939;SDS011;4015;48.888;9.226;2023-06-10T10:18:31;3.55;;;3.22;;
7939;SDS011;4015;48.888;9.226;2023-06-10T10:21:00;3.30;;;3.00;;
7939;SDS011;4015;48.888;9.226;2023-06-10T10:23:33;4.47;;;3.15;;
7939;SDS011;4015;48.888;9.226;2023-06-10T10:26:04;4.07;;;3.20;;
7939;SDS011;4015;48.888;9.226;2023-06-10T10:28:37;5.00;;;3.45;;
7939;SDS011;4015;48.888;9.226;2023-06-10T10:31:38;3.88;;;2.78;;
7939;SDS011;4015;48.888;9.226;2023-06-10T10:34:07;3.42;;;2.80;;
7939;SDS011;4015;48.888;9.226;2023-06-10T10:36:37;3.35;;;2.80;;
7939;SDS011;4015;48.888;9.226;2023-06-10T10:39:04;4.88;;;2.95;;
7939;SDS011;4015;48.888;9.226;2023-06-10T10:41:30;3.10;;;2.80;;
7939;SDS011;4015;48.888;9.226;2023-06-10T10:43:57;3.55;;;3.22;;
7939;SDS011;4015;48.888;9.226;2023-06-10T10:46:23;4.10;;;2.85;;
7939;SDS011;4015;48.888;9.226;2023-06-10T10:48:52;3.40;;;3.10;;
7939;SDS011;4015;48.888;9.226;2023-06-10T10:51:18;3.00;;;2.80;;
7939;SDS011;4015;48.888;9.226;2023-06-10T10:53:43;5.93;;;3.47;;
7939;SDS011;4015;48.888;9.226;2023-06-10T10:56:13;5.00;;;2.90;;
7939;SDS011;4015;48.888;9.226;2023-06-10T10:58:40;4.35;;;3.20;;
7939;SDS011;4015;48.888;9.226;2023-06-10T11:01:12;3.60;;;3.30;;
7939;SDS011;4015;48.888;9.226;2023-06-10T11:03:46;3.60;;;3.30;;
7939;SDS011;4015;48.888;9.226;2023-06-10T11:06:14;3.17;;;2.97;;
7939;SDS011;4015;48.888;9.226;2023-06-10T11:11:25;3.20;;;2.92;;
7939;SDS011;4015;48.888;9.226;2023-06-10T11:14:13;3.88;;;3.40;;
7939;SDS011;4015;48.888;9.226;2023-06-10T11:16:38;3.40;;;3.10;;
7939;SDS011;4015;48.888;9.226;2023-06-10T11:19:05;3.42;;;3.13;;
7939;SDS011;4015;48.888;9.226;2023-06-10T11:21:31;3.40;;;2.80;;
7939;SDS011;4015;48.888;9.226;2023-06-10T11:23:57;3.92;;;3.08;;
7939;SDS011;4015;48.888;9.226;2023-06-10T11:31:25;3.47;;;3.17;;
7939;SDS011;4015;48.888;9.226;2023-06-10T11:33:56;3.80;;;2.90;;
7939;SDS011;4015;48.888;9.226;2023-06-10T11:36:26;3.33;;;3.03;;
7939;SDS011;4015;48.888;9.226;2023-06-10T11:38:59;3.30;;;3.00;;
7939;SDS011;4015;48.888;9.226;2023-06-10T11:41:27;3.13;;;2.92;;
7939;SDS011;4015;48.888;9.226;2023-06-10T11:43:54;3.13;;;2.80;;
7939;SDS011;4015;48.888;9.226;2023-06-10T11:46:23;6.50;;;2.88;;
7939;SDS011;4015;48.888;9.226;2023-06-10T11:48:52;3.13;;;2.92;;
7939;SDS011;4015;48.888;9.226;2023-06-10T11:51:18;4.13;;;2.50;;
7939;SDS011;4015;48.888;9.226;2023-06-10T11:53:47;3.88;;;2.65;;
7939;SDS011;4015;48.888;9.226;2023-06-10T11:56:13;3.22;;;2.92;;
7939;SDS011;4015;48.888;9.226;2023-06-10T11:58:44;3.83;;;2.90;;
7939;SDS011;4015;48.888;9.226;2023-06-10T12:01:10;3.72;;;2.95;;
7939;SDS011;4015;48.888;9.226;2023-06-10T12:03:38;3.45;;;2.88;;
7939;SDS011;4015;48.888;9.226;2023-06-10T12:06:04;2.80;;;2.55;;
7939;SDS011;4015;48.888;9.226;2023-06-10T12:08:31;2.78;;;2.58;;
7939;SDS011;4015;48.888;9.226;2023-06-10T12:10:57;3.20;;;2.90;;
7939;SDS011;4015;48.888;9.226;2023-06-10T12:13:26;2.97;;;2.78;;
7939;SDS011;4015;48.888;9.226;2023-06-10T12:15:52;2.97;;;2.78;;
7939;SDS011;4015;48.888;9.226;2023-06-10T12:20:43;3.10;;;2.80;;
7939;SDS011;4015;48.888;9.226;2023-06-10T12:23:09;2.45;;;2.30;;
7939;SDS011;4015;48.888;9.226;2023-06-10T12:25:35;2.83;;;2.63;;
7939;SDS011;4015;48.888;9.226;2023-06-10T12:28:04;3.05;;;2.42;;
7939;SDS011;4015;48.888;9.226;2023-06-10T12:30:31;3.28;;;2.97;;
7939;SDS011;4015;48.888;9.226;2023-06-10T12:32:57;2.85;;;2.53;;
7939;SDS011;4015;48.888;9.226;2023-06-10T12:35:23;2.50;;;2.30;;
7939;SDS011;4015;48.888;9.226;2023-06-10T12:37:56;2.85;;;2.55;;
7939;SDS011;4015;48.888;9.226;2023-06-10T12:40:40;3.05;;;2.60;;
7939;SDS011;4015;48.888;9.226;2023-06-10T12:43:06;2.83;;;2.33;;
7939;SDS011;4015;48.888;9.226;2023-06-10T12:45:37;3.03;;;2.35;;
7939;SDS011;4015;48.888;9.226;2023-06-10T12:48:11;2.40;;;2.20;;
7939;SDS011;4015;48.888;9.226;2023-06-10T12:50:54;3.03;;;2.65;;
7939;SDS011;4015;48.888;9.226;2023-06-10T12:53:20;2.53;;;2.33;;
7939;SDS011;4015;48.888;9.226;2023-06-10T12:55:48;3.42;;;2.70;;
7939;SDS011;4015;48.888;9.226;2023-06-10T12:58:13;3.13;;;2.92;;
7939;SDS011;4015;48.888;9.226;2023-06-10T13:00:39;3.10;;;2.65;;
7939;SDS011;4015;48.888;9.226;2023-06-10T13:03:05;3.17;;;2.85;;
7939;SDS011;4015;48.888;9.226;2023-06-10T13:05:31;2.50;;;2.30;;
7939;SDS011;4015;48.888;9.226;2023-06-10T13:07:57;2.72;;;2.53;;
7939;SDS011;4015;48.888;9.226;2023-06-10T13:10:23;2.58;;;2.38;;
7939;SDS011;4015;48.888;9.226;2023-06-10T13:12:50;2.25;;;2.15;;
7939;SDS011;4015;48.888;9.226;2023-06-10T13:15:16;2.20;;;2.00;;
7939;SDS011;4015;48.888;9.226;2023-06-10T13:17:44;2.40;;;2.20;;
7939;SDS011;4015;48.888;9.226;2023-06-10T13:20:15;2.38;;;2.17;;
7939;SDS011;4015;48.888;9.226;2023-06-10T13:22:41;2.60;;;2.40;;
7939;SDS011;4015;48.888;9.226;2023-06-10T13:25:07;3.40;;;2.15;;
7939;SDS011;4015;48.888;9.226;2023-06-10T13:27:33;2.88;;;2.58;;
7939;SDS011;4015;48.888;9.226;2023-06-10T13:29:59;4.15;;;2.60;;
7939;SDS011;4015;48.888;9.226;2023-06-10T13:32:25;2.58;;;2.38;;
7939;SDS011;4015;48.888;9.226;2023-06-10T13:34:50;2.83;;;2.50;;
7939;SDS011;4015;48.888;9.226;2023-06-10T13:37:16;2.65;;;2.45;;
7939;SDS011;4015;48.888;9.226;2023-06-10T13:39:44;2.63;;;2.42;;
7939;SDS011;4015;48.888;9.226;2023-06-10T13:42:12;2.67;;;2.00;;
7939;SDS011;4015;48.888;9.226;2023-06-10T13:44:37;2.55;;;2.35;;
7939;SDS011;4015;48.888;9.226;2023-06-10T13:47:03;2.63;;;2.42;;
7939;SDS011;4015;48.888;9.226;2023-06-10T13:49:29;2.55;;;2.22;;
7939;SDS011;4015;48.888;9.226;2023-06-10T13:51:54;2.88;;;1.98;;
7939;SDS011;4015;48.888;9.226;2023-06-10T13:54:20;2.53;;;2.33;;
7939;SDS011;4015;48.888;9.226;2023-06-10T13:56:46;2.60;;;2.38;;
7939;SDS011;4015;48.888;9.226;2023-06-10T13:59:11;2.65;;;2.45;;
7939;SDS011;4015;48.888;9.226;2023-06-10T14:01:37;2.80;;;2.50;;
7939;SDS011;4015;48.888;9.226;2023-06-10T14:04:02;4.00;;;2.40;;
7939;SDS011;4015;48.888;9.226;2023-06-10T14:06:28;2.85;;;2.60;;
7939;SDS011;4015;48.888;9.226;2023-06-10T14:08:53;3.45;;;2.28;;
7939;SDS011;4015;48.888;9.226;2023-06-10T14:11:19;2.78;;;2.58;;
7939;SDS011;4015;48.888;9.226;2023-06-10T14:13:46;2.40;;;2.17;;
7939;SDS011;4015;48.888;9.226;2023-06-10T14:16:11;2.95;;;2.50;;
7939;SDS011;4015;48.888;9.226;2023-06-10T14:18:36;4.00;;;2.58;;
7939;SDS011;4015;48.888;9.226;2023-06-10T14:21:02;3.22;;;2.58;;
7939;SDS011;4015;48.888;9.226;2023-06-10T14:23:27;2.60;;;2.40;;
7939;SDS011;4015;48.888;9.226;2023-06-10T14:25:52;2.78;;;2.47;;
7939;SDS011;4015;48.888;9.226;2023-06-10T14:28:18;4.43;;;2.40;;
7939;SDS011;4015;48.888;9.226;2023-06-10T14:30:43;3.72;;;2.50;;
7939;SDS011;4015;48.888;9.226;2023-06-10T14:33:08;2.90;;;2.33;;
7939;SDS011;4015;48.888;9.226;2023-06-10T14:35:34;2.70;;;2.35;;
7939;SDS011;4015;48.888;9.226;2023-06-10T14:37:59;2.85;;;2.55;;
7939;SDS011;4015;48.888;9.226;2023-06-10T14:40:24;2.60;;;2.40;;
7939;SDS011;4015;48.888;9.226;2023-06-10T14:42:51;2.75;;;2.55;;
7939;SDS011;4015;48.888;9.226;2023-06-10T14:45:16;4.22;;;2.20;;
7939;SDS011;4015;48.888;9.226;2023-06-10T14:47:42;2.65;;;2.45;;
7939;SDS011;4015;48.888;9.226;2023-06-10T14:50:08;3.15;;;2.38;;
7939;SDS011;4015;48.888;9.226;2023-06-10T14:52:33;2.55;;;2.35;;
7939;SDS011;4015;48.888;9.226;2023-06-10T14:54:59;2.53;;;2.33;;
7939;SDS011;4015;48.888;9.226;2023-06-10T14:57:24;2.95;;;2.38;;
7939;SDS011;4015;48.888;9.226;2023-06-10T14:59:49;5.13;;;2.72;;
7939;SDS011;4015;48.888;9.226;2023-06-10T15:02:15;2.92;;;2.55;;
7939;SDS011;4015;48.888;9.226;2023-06-10T15:04:40;2.53;;;2.33;;
7939;SDS011;4015;48.888;9.226;2023-06-10T15:07:05;3.08;;;2.85;;
7939;SDS011;4015;48.888;9.226;2023-06-10T15:09:31;2.65;;;2.45;;
7939;SDS011;4015;48.888;9.226;2023-06-10T15:11:57;2.80;;;2.60;;
7939;SDS011;4015;48.888;9.226;2023-06-10T15:14:23;2.80;;;2.60;;
7939;SDS011;4015;48.888;9.226;2023-06-10T15:16:48;2.85;;;2.65;;
7939;SDS011;4015;48.888;9.226;2023-06-10T15:19:13;3.42;;;3.13;;
7939;SDS011;4015;48.888;9.226;2023-06-10T15:21:39;3.65;;;2.65;;
7939;SDS011;4015;48.888;9.226;2023-06-10T15:24:04;2.97;;;2.60;;
7939;SDS011;4015;48.888;9.226;2023-06-10T15:26:30;2.95;;;2.63;;